Bookmark and Share
Track history (hours):
 

Dai15hakuryomaru

Last reported at 2014-Apr-18 09:18 UTC. Time now 2014-Apr-18 16:21 UTC.
Position N 35°57' E 140°42'.

Length 80 m; draft 5 m.

Type: Tanker. MMSI: 431000243.

NotesDate/timePositionNaut miles runAvg speedWind from/ knotsBaromVisibWave heightAir tempDewpointWater temp
2014-Apr-18 09:18N 35°57' E 140°42'16 1.0
2014-Apr-17 17:30N 35°45' E 140°56'1311.8
2014-Apr-17 16:26N 35°33' E 140°51'4513.4
2014-Apr-17 13:03N 34°60' E 140°13'713.1
2014-Apr-17 12:33N 34°57' E 140°06'1512.1
2014-Apr-17 11:17N 34°53' E 139°48'811.2
2014-Apr-17 10:33N 35°00' E 139°43'1211.8
2014-Apr-17 09:34N 35°12' E 139°46'1111.3
2014-Apr-17 08:33N 35°23' E 139°42'1111.3
2014-Apr-17 07:34N 35°30' E 139°53'7 6.9
2014-Apr-17 06:32N 35°30' E 140°02'0 0.0
2014-Apr-17 05:33N 35°30' E 140°02'0 0.0
2014-Apr-17 04:34N 35°30' E 140°02'0 0.0
2014-Apr-17 03:33N 35°30' E 140°02'2 1.8
2014-Apr-17 02:33N 35°32' E 140°01'0 0.3
2014-Apr-17 01:34N 35°32' E 140°01'0 0.0
2014-Apr-17 00:33N 35°32' E 140°01'0 0.0
2014-Apr-16 23:33N 35°32' E 140°01'0 0.0
2014-Apr-16 22:34N 35°32' E 140°01'0 0.0
2014-Apr-16 21:33N 35°32' E 140°01'0 0.0
2014-Apr-16 20:34N 35°32' E 140°01'0 0.0
2014-Apr-16 19:34N 35°32' E 140°01'0 0.0
2014-Apr-16 18:33N 35°32' E 140°01'0 0.0
2014-Apr-16 17:34N 35°32' E 140°01'0 0.0
2014-Apr-16 16:34N 35°32' E 140°01'4 3.9
2014-Apr-16 15:34N 35°30' E 139°57'1512.3
2014-Apr-16 14:22N 35°20' E 139°44'911.8
2014-Apr-16 13:33N 35°10' E 139°46'1313.2
2014-Apr-16 12:34N 35°00' E 139°36'1813.3
2014-Apr-16 11:13N 34°49' E 139°19'19 0.7
2014-Apr-15 09:34N 35°04' E 139°33'1110.6
2014-Apr-15 08:34N 35°09' E 139°44'1110.5
2014-Apr-15 07:34N 35°20' E 139°42'6 5.8
2014-Apr-15 06:34N 35°24' E 139°38'0 0.0
2014-Apr-15 05:34N 35°24' E 139°38'0 0.0
2014-Apr-15 03:34N 35°24' E 139°38'0 0.0
2014-Apr-15 02:34N 35°24' E 139°38'0 0.0
2014-Apr-15 01:34N 35°24' E 139°38'2 2.1
2014-Apr-15 00:34N 35°23' E 139°40'1 1.1
2014-Apr-14 23:34N 35°22' E 139°40'0 0.1
2014-Apr-14 22:34N 35°22' E 139°40'0 0.0
2014-Apr-14 21:34N 35°22' E 139°40'0 0.0
2014-Apr-14 20:34N 35°22' E 139°40'0 0.0
2014-Apr-14 19:34N 35°22' E 139°40'0 0.0
2014-Apr-14 18:34N 35°22' E 139°40'0 0.0
2014-Apr-14 17:34N 35°22' E 139°40'0 0.0
2014-Apr-14 16:34N 35°22' E 139°40'0 0.0
2014-Apr-14 15:34N 35°22' E 139°40'0 0.0
2014-Apr-14 14:34N 35°22' E 139°40'0 0.0
2014-Apr-14 13:34N 35°22' E 139°40'0 0.0
2014-Apr-14 11:34N 35°22' E 139°40'5 4.6
2014-Apr-14 10:33N 35°19' E 139°44'1211.8
2014-Apr-14 09:34N 35°07' E 139°45'34 1.5
2014-Apr-13 11:05N 34°49' E 139°09'1911.7
2014-Apr-13 09:30N 35°01' E 139°27'1212.3
2014-Apr-13 08:33N 35°06' E 139°39'1111.2
2014-Apr-13 07:33N 35°16' E 139°46'1010.0
2014-Apr-13 06:33N 35°26' E 139°46'1211.6
2014-Apr-13 05:34N 35°31' E 139°59'2 2.1
2014-Apr-13 04:34N 35°30' E 140°02'0 0.0
2014-Apr-13 03:33N 35°30' E 140°02'0 0.0
2014-Apr-13 02:34N 35°30' E 140°02'0 0.0
2014-Apr-13 01:33N 35°30' E 140°02'2 2.0
2014-Apr-13 00:33N 35°32' E 140°01'0 0.0
2014-Apr-12 23:33N 35°32' E 140°01'0 0.0
2014-Apr-12 22:34N 35°32' E 140°01'5 4.6
2014-Apr-12 21:34N 35°30' E 139°55'1212.5
2014-Apr-12 20:34N 35°21' E 139°45'1212.0
2014-Apr-12 19:33N 35°09' E 139°46'1313.0
2014-Apr-12 18:33N 34°56' E 139°44'1611.0
2014-Apr-12 17:06N 34°57' E 140°04'3212.3
2014-Apr-12 14:30N 35°19' E 140°32'1212.4
2014-Apr-12 13:32N 35°29' E 140°41'1212.0
2014-Apr-12 12:32N 35°37' E 140°51'8 0.4
2014-Apr-11 15:22N 35°30' E 140°47'1113.0
2014-Apr-11 14:33N 35°22' E 140°40'3213.2
2014-Apr-11 12:09N 34°59' E 140°13'2311.5
2014-Apr-11 10:07N 34°56' E 139°45'711.4
2014-Apr-11 09:32N 35°03' E 139°44'1312.4
2014-Apr-11 08:28N 35°16' E 139°46'1010.6
2014-Apr-11 07:33N 35°26' E 139°46'1212.0
2014-Apr-11 06:34N 35°32' E 139°58'5 5.4
2014-Apr-11 05:34N 35°33' E 140°05'0 0.0
2014-Apr-11 04:33N 35°33' E 140°05'0 0.0
2014-Apr-11 03:34N 35°33' E 140°05'0 0.0
2014-Apr-11 02:33N 35°33' E 140°05'0 0.0
2014-Apr-11 01:34N 35°33' E 140°05'0 0.0
2014-Apr-11 00:34N 35°33' E 140°05'0 0.0
2014-Apr-10 23:33N 35°33' E 140°05'0 0.1
2014-Apr-10 22:33N 35°33' E 140°05'7 6.7
2014-Apr-10 21:33N 35°38' E 139°59'3 3.0
2014-Apr-10 20:33N 35°41' E 139°59'0 0.0
2014-Apr-10 19:33N 35°41' E 139°59'0 0.0
2014-Apr-10 18:33N 35°41' E 139°59'0 0.0
2014-Apr-10 17:33N 35°41' E 139°59'0 0.0
2014-Apr-10 16:34N 35°41' E 139°59'0 0.0
2014-Apr-10 15:33N 35°41' E 139°59'0 0.0
2014-Apr-10 14:33N 35°41' E 139°59'0 0.0
2014-Apr-10 13:33N 35°41' E 139°59'0 0.0
2014-Apr-10 12:33N 35°41' E 139°59'0 0.0
2014-Apr-10 11:34N 35°41' E 139°59'0 0.0
2014-Apr-10 10:33N 35°41' E 139°59'0 0.0
2014-Apr-10 09:34N 35°41' E 139°59'0 0.0
2014-Apr-10 08:34N 35°41' E 139°59'0 0.0
2014-Apr-10 07:33N 35°41' E 139°59'0 0.0
2014-Apr-10 06:33N 35°41' E 139°59'0 0.0
2014-Apr-10 05:33N 35°41' E 139°59'0 0.0
2014-Apr-10 04:33N 35°41' E 139°59'6 5.8
2014-Apr-10 03:33N 35°35' E 139°60'4 3.6
2014-Apr-10 02:33N 35°32' E 140°02'0 0.1
2014-Apr-10 01:33N 35°32' E 140°02'0 0.0
2014-Apr-10 00:33N 35°32' E 140°02'0 0.0
2014-Apr-09 23:33N 35°32' E 140°02'0 0.0
2014-Apr-09 22:34N 35°32' E 140°02'0 0.0
2014-Apr-09 21:33N 35°32' E 140°02'0 0.0
2014-Apr-09 20:33N 35°32' E 140°02'0 0.0
2014-Apr-09 19:33N 35°32' E 140°02'0 0.0
2014-Apr-09 18:33N 35°32' E 140°02'0 0.1
2014-Apr-09 17:33N 35°32' E 140°02'1212.2
2014-Apr-09 16:33N 35°26' E 139°48'1111.1
2014-Apr-09 15:33N 35°15' E 139°47'1313.1
2014-Apr-09 14:33N 35°02' E 139°45'18 8.8
2014-Apr-09 12:30N 35°00' E 140°07'3712.0
2014-Apr-09 09:27N 35°25' E 140°39'32 1.9
2014-Apr-08 16:33N 35°57' E 140°42'0 0.0
2014-Apr-08 15:33N 35°57' E 140°42'0 0.0
2014-Apr-08 12:11N 35°57' E 140°42'  

Dump ship's entire track history

sailing weather and tide predictions

Dai15hakuryomaru — JD2439 — position and weather